sensor_id;sensor_type;location;lat;lon;timestamp;pressure;altitude;pressure_sealevel;temperature;humidity
46430;BME280;32131;53.454;-6.180;2022-09-09T00:02:08;100503.59;;;14.77;100.00
46430;BME280;32131;53.454;-6.180;2022-09-09T00:04:40;100503.59;;;14.75;100.00
46430;BME280;32131;53.454;-6.180;2022-09-09T00:07:10;100500.13;;;14.75;100.00
46430;BME280;32131;53.454;-6.180;2022-09-09T00:09:44;100498.38;;;14.75;100.00
46430;BME280;32131;53.454;-6.180;2022-09-09T00:12:17;100500.97;;;14.75;100.00
46430;BME280;32131;53.454;-6.180;2022-09-09T00:14:48;100500.13;;;14.73;100.00
46430;BME280;32131;53.454;-6.180;2022-09-09T00:17:21;100501.03;;;14.72;100.00
46430;BME280;32131;53.454;-6.180;2022-09-09T00:19:53;100503.63;;;14.72;100.00
46430;BME280;32131;53.454;-6.180;2022-09-09T00:22:24;100505.34;;;14.70;100.00
46430;BME280;32131;53.454;-6.180;2022-09-09T00:24:55;100499.28;;;14.73;100.00
46430;BME280;32131;53.454;-6.180;2022-09-09T00:27:26;100497.56;;;14.70;100.00
46430;BME280;32131;53.454;-6.180;2022-09-09T00:29:57;100499.28;;;14.70;100.00
46430;BME280;32131;53.454;-6.180;2022-09-09T00:32:27;100497.59;;;14.69;100.00
46430;BME280;32131;53.454;-6.180;2022-09-09T00:34:58;100496.69;;;14.68;100.00
46430;BME280;32131;53.454;-6.180;2022-09-09T00:37:27;100493.22;;;14.66;100.00
46430;BME280;32131;53.454;-6.180;2022-09-09T00:40:00;100490.63;;;14.65;100.00
46430;BME280;32131;53.454;-6.180;2022-09-09T00:42:32;100487.16;;;14.62;100.00
46430;BME280;32131;53.454;-6.180;2022-09-09T00:45:08;100486.31;;;14.59;100.00
46430;BME280;32131;53.454;-6.180;2022-09-09T00:47:40;100486.31;;;14.59;100.00
46430;BME280;32131;53.454;-6.180;2022-09-09T00:50:21;100481.16;;;14.56;100.00
46430;BME280;32131;53.454;-6.180;2022-09-09T00:53:00;100479.44;;;14.55;100.00
46430;BME280;32131;53.454;-6.180;2022-09-09T00:55:34;100482.00;;;14.53;100.00
46430;BME280;32131;53.454;-6.180;2022-09-09T00:58:06;100486.34;;;14.53;100.00
46430;BME280;32131;53.454;-6.180;2022-09-09T01:00:35;100476.84;;;14.49;100.00
46430;BME280;32131;53.454;-6.180;2022-09-09T01:03:11;100477.72;;;14.48;100.00
46430;BME280;32131;53.454;-6.180;2022-09-09T01:05:44;100475.13;;;14.48;100.00
46430;BME280;32131;53.454;-6.180;2022-09-09T01:08:17;100479.44;;;14.47;100.00
46430;BME280;32131;53.454;-6.180;2022-09-09T01:10:52;100480.31;;;14.46;100.00
46430;BME280;32131;53.454;-6.180;2022-09-09T01:13:22;100481.19;;;14.46;100.00
46430;BME280;32131;53.454;-6.180;2022-09-09T01:15:51;100488.13;;;14.48;100.00
46430;BME280;32131;53.454;-6.180;2022-09-09T01:18:27;100488.13;;;14.48;100.00
46430;BME280;32131;53.454;-6.180;2022-09-09T01:20:59;100484.66;;;14.50;100.00
46430;BME280;32131;53.454;-6.180;2022-09-09T01:23:34;100479.44;;;14.50;100.00
46430;BME280;32131;53.454;-6.180;2022-09-09T01:26:14;100482.94;;;14.48;100.00
46430;BME280;32131;53.454;-6.180;2022-09-09T01:28:44;100474.25;;;14.47;100.00
46430;BME280;32131;53.454;-6.180;2022-09-09T01:31:14;100482.94;;;14.48;100.00
46430;BME280;32131;53.454;-6.180;2022-09-09T01:33:43;100475.13;;;14.46;100.00
46430;BME280;32131;53.454;-6.180;2022-09-09T01:36:12;100472.53;;;14.48;100.00
46430;BME280;32131;53.454;-6.180;2022-09-09T01:38:40;100475.13;;;14.48;100.00
46430;BME280;32131;53.454;-6.180;2022-09-09T01:41:08;100471.63;;;14.49;100.00
46430;BME280;32131;53.454;-6.180;2022-09-09T01:43:37;100473.38;;;14.48;100.00
46430;BME280;32131;53.454;-6.180;2022-09-09T01:46:05;100477.72;;;14.48;100.00
46430;BME280;32131;53.454;-6.180;2022-09-09T01:48:33;100483.78;;;14.48;100.00
46430;BME280;32131;53.454;-6.180;2022-09-09T01:51:01;100474.25;;;14.49;100.00
46430;BME280;32131;53.454;-6.180;2022-09-09T01:53:29;100480.31;;;14.49;100.00
46430;BME280;32131;53.454;-6.180;2022-09-09T01:56:00;100479.44;;;14.49;100.00
46430;BME280;32131;53.454;-6.180;2022-09-09T01:58:32;100475.97;;;14.50;100.00
46430;BME280;32131;53.454;-6.180;2022-09-09T02:01:06;100476.00;;;14.48;100.00
46430;BME280;32131;53.454;-6.180;2022-09-09T02:03:37;100477.69;;;14.51;100.00
46430;BME280;32131;53.454;-6.180;2022-09-09T02:06:08;100474.22;;;14.53;100.00
46430;BME280;32131;53.454;-6.180;2022-09-09T02:08:42;100467.28;;;14.52;100.00
46430;BME280;32131;53.454;-6.180;2022-09-09T02:11:13;100461.22;;;14.53;100.00
46430;BME280;32131;53.454;-6.180;2022-09-09T02:13:41;100463.00;;;14.51;100.00
46430;BME280;32131;53.454;-6.180;2022-09-09T02:16:12;100462.97;;;14.50;100.00
46430;BME280;32131;53.454;-6.180;2022-09-09T02:18:42;100467.34;;;14.48;100.00
46430;BME280;32131;53.454;-6.180;2022-09-09T02:21:14;100470.81;;;14.46;100.00
46430;BME280;32131;53.454;-6.180;2022-09-09T02:23:44;100469.94;;;14.46;100.00
46430;BME280;32131;53.454;-6.180;2022-09-09T02:26:15;100469.94;;;14.48;100.00
46430;BME280;32131;53.454;-6.180;2022-09-09T02:28:47;100470.78;;;14.50;100.00
46430;BME280;32131;53.454;-6.180;2022-09-09T02:31:17;100462.13;;;14.51;100.00
46430;BME280;32131;53.454;-6.180;2022-09-09T02:33:49;100469.91;;;14.51;100.00
46430;BME280;32131;53.454;-6.180;2022-09-09T02:36:19;100462.13;;;14.51;100.00
46430;BME280;32131;53.454;-6.180;2022-09-09T02:38:49;100459.50;;;14.52;100.00
46430;BME280;32131;53.454;-6.180;2022-09-09T02:41:20;100467.28;;;14.52;100.00
46430;BME280;32131;53.454;-6.180;2022-09-09T02:43:49;100459.50;;;14.54;100.00
46430;BME280;32131;53.454;-6.180;2022-09-09T02:46:27;100460.38;;;14.56;100.00
46430;BME280;32131;53.454;-6.180;2022-09-09T02:48:59;100460.34;;;14.57;100.00
46430;BME280;32131;53.454;-6.180;2022-09-09T02:51:30;100466.41;;;14.58;100.00
46430;BME280;32131;53.454;-6.180;2022-09-09T02:54:01;100449.97;;;14.56;100.00
46430;BME280;32131;53.454;-6.180;2022-09-09T02:56:32;100459.50;;;14.55;100.00
46430;BME280;32131;53.454;-6.180;2022-09-09T02:59:03;100451.72;;;14.54;100.00
46430;BME280;32131;53.454;-6.180;2022-09-09T03:01:32;100454.34;;;14.49;100.00
46430;BME280;32131;53.454;-6.180;2022-09-09T03:04:02;100452.63;;;14.45;100.00
46430;BME280;32131;53.454;-6.180;2022-09-09T03:06:31;100454.34;;;14.44;100.00
46430;BME280;32131;53.454;-6.180;2022-09-09T03:08:59;100443.09;;;14.42;100.00
46430;BME280;32131;53.454;-6.180;2022-09-09T03:11:28;100442.28;;;14.37;100.00
46430;BME280;32131;53.454;-6.180;2022-09-09T03:13:57;100442.31;;;14.33;100.00
46430;BME280;32131;53.454;-6.180;2022-09-09T03:16:25;100453.56;;;14.31;100.00
46430;BME280;32131;53.454;-6.180;2022-09-09T03:18:54;100449.25;;;14.29;100.00
46430;BME280;32131;53.454;-6.180;2022-09-09T03:21:22;100456.16;;;14.27;100.00
46430;BME280;32131;53.454;-6.180;2022-09-09T03:23:51;100461.38;;;14.22;100.00
46430;BME280;32131;53.454;-6.180;2022-09-09T03:26:18;100459.66;;;14.21;100.00
46430;BME280;32131;53.454;-6.180;2022-09-09T03:28:46;100452.75;;;14.22;100.00
46430;BME280;32131;53.454;-6.180;2022-09-09T03:31:14;100447.53;;;14.20;100.00
46430;BME280;32131;53.454;-6.180;2022-09-09T03:33:42;100447.56;;;14.19;100.00
46430;BME280;32131;53.454;-6.180;2022-09-09T03:36:11;100442.38;;;14.17;100.00
46430;BME280;32131;53.454;-6.180;2022-09-09T03:38:39;100437.19;;;14.17;100.00
46430;BME280;32131;53.454;-6.180;2022-09-09T03:41:07;100439.75;;;14.15;100.00
46430;BME280;32131;53.454;-6.180;2022-09-09T03:43:35;100445.84;;;14.16;100.00
46430;BME280;32131;53.454;-6.180;2022-09-09T03:46:04;100451.88;;;14.18;100.00
46430;BME280;32131;53.454;-6.180;2022-09-09T03:48:32;100451.00;;;14.18;100.00
46430;BME280;32131;53.454;-6.180;2022-09-09T03:51:00;100442.34;;;14.15;100.00
46430;BME280;32131;53.454;-6.180;2022-09-09T03:53:30;100447.59;;;14.12;100.00
46430;BME280;32131;53.454;-6.180;2022-09-09T03:55:59;100449.28;;;14.12;100.00
46430;BME280;32131;53.454;-6.180;2022-09-09T03:58:28;100450.19;;;14.12;100.00
46430;BME280;32131;53.454;-6.180;2022-09-09T04:00:57;100447.59;;;14.12;100.00
46430;BME280;32131;53.454;-6.180;2022-09-09T04:03:25;100450.19;;;14.12;100.00
46430;BME280;32131;53.454;-6.180;2022-09-09T04:05:54;100451.06;;;14.10;100.00
46430;BME280;32131;53.454;-6.180;2022-09-09T04:08:22;100448.44;;;14.11;100.00
46430;BME280;32131;53.454;-6.180;2022-09-09T04:10:53;100449.31;;;14.09;100.00
46430;BME280;32131;53.454;-6.180;2022-09-09T04:13:23;100459.72;;;14.09;100.00
46430;BME280;32131;53.454;-6.180;2022-09-09T04:15:51;100459.69;;;14.07;100.00
46430;BME280;32131;53.454;-6.180;2022-09-09T04:18:19;100459.72;;;14.06;100.00
46430;BME280;32131;53.454;-6.180;2022-09-09T04:20:47;100466.63;;;14.07;100.00
46430;BME280;32131;53.454;-6.180;2022-09-09T04:23:15;100460.56;;;14.06;100.00
46430;BME280;32131;53.454;-6.180;2022-09-09T04:25:45;100456.25;;;14.05;100.00
46430;BME280;32131;53.454;-6.180;2022-09-09T04:28:14;100472.69;;;14.06;100.00
46430;BME280;32131;53.454;-6.180;2022-09-09T04:30:42;100474.44;;;14.05;100.00
46430;BME280;32131;53.454;-6.180;2022-09-09T04:33:10;100479.63;;;14.04;100.00
46430;BME280;32131;53.454;-6.180;2022-09-09T04:35:38;100472.72;;;14.04;100.00
46430;BME280;32131;53.454;-6.180;2022-09-09T04:38:07;100469.25;;;14.05;100.00
46430;BME280;32131;53.454;-6.180;2022-09-09T04:40:35;100471.84;;;14.05;100.00
46430;BME280;32131;53.454;-6.180;2022-09-09T04:43:03;100471.84;;;14.02;100.00
46430;BME280;32131;53.454;-6.180;2022-09-09T04:45:33;100472.69;;;14.01;100.00
46430;BME280;32131;53.454;-6.180;2022-09-09T04:48:03;100471.84;;;14.01;100.00
46430;BME280;32131;53.454;-6.180;2022-09-09T04:50:31;100470.09;;;14.01;100.00
46430;BME280;32131;53.454;-6.180;2022-09-09T04:52:59;100471.84;;;14.02;100.00
46430;BME280;32131;53.454;-6.180;2022-09-09T04:55:27;100472.69;;;14.01;100.00
46430;BME280;32131;53.454;-6.180;2022-09-09T04:57:55;100470.97;;;14.00;100.00
46430;BME280;32131;53.454;-6.180;2022-09-09T05:00:24;100459.75;;;13.99;100.00
46430;BME280;32131;53.454;-6.180;2022-09-09T05:02:53;100467.53;;;13.99;100.00
46430;BME280;32131;53.454;-6.180;2022-09-09T05:05:21;100475.28;;;14.01;100.00
46430;BME280;32131;53.454;-6.180;2022-09-09T05:07:48;100464.91;;;14.01;100.00
46430;BME280;32131;53.454;-6.180;2022-09-09T05:10:16;100470.97;;;14.00;100.00
46430;BME280;32131;53.454;-6.180;2022-09-09T05:12:51;100471.84;;;14.01;100.00
46430;BME280;32131;53.454;-6.180;2022-09-09T05:15:19;100483.97;;;14.02;100.00
46430;BME280;32131;53.454;-6.180;2022-09-09T05:17:47;100483.09;;;14.01;100.00
46430;BME280;32131;53.454;-6.180;2022-09-09T05:20:16;100477.91;;;14.01;100.00
46430;BME280;32131;53.454;-6.180;2022-09-09T05:22:44;100490.88;;;14.01;100.00
46430;BME280;32131;53.454;-6.180;2022-09-09T05:25:12;100490.88;;;14.01;100.00
46430;BME280;32131;53.454;-6.180;2022-09-09T05:27:40;100492.63;;;14.01;100.00
46430;BME280;32131;53.454;-6.180;2022-09-09T05:30:08;100495.19;;;13.99;100.00
46430;BME280;32131;53.454;-6.180;2022-09-09T05:32:36;100491.75;;;14.00;100.00
46430;BME280;32131;53.454;-6.180;2022-09-09T05:35:05;100491.75;;;14.00;100.00
46430;BME280;32131;53.454;-6.180;2022-09-09T05:37:38;100497.81;;;13.97;100.00
46430;BME280;32131;53.454;-6.180;2022-09-09T05:40:07;100496.06;;;13.98;100.00
46430;BME280;32131;53.454;-6.180;2022-09-09T05:42:36;100505.59;;;13.96;100.00
46430;BME280;32131;53.454;-6.180;2022-09-09T05:45:05;100505.56;;;13.99;100.00
46430;BME280;32131;53.454;-6.180;2022-09-09T05:47:35;100508.19;;;13.99;100.00
46430;BME280;32131;53.454;-6.180;2022-09-09T05:50:04;100510.78;;;14.02;100.00
46430;BME280;32131;53.454;-6.180;2022-09-09T05:52:32;100519.44;;;14.01;100.00
46430;BME280;32131;53.454;-6.180;2022-09-09T05:55:01;100521.16;;;14.02;100.00
46430;BME280;32131;53.454;-6.180;2022-09-09T05:57:30;100523.75;;;14.02;100.00
46430;BME280;32131;53.454;-6.180;2022-09-09T05:59:58;100522.88;;;14.03;100.00
46430;BME280;32131;53.454;-6.180;2022-09-09T06:02:26;100524.59;;;14.06;100.00
46430;BME280;32131;53.454;-6.180;2022-09-09T06:04:54;100535.84;;;14.06;100.00
46430;BME280;32131;53.454;-6.180;2022-09-09T06:07:26;100538.44;;;14.09;100.00
46430;BME280;32131;53.454;-6.180;2022-09-09T06:09:53;100542.78;;;14.06;100.00
46430;BME280;32131;53.454;-6.180;2022-09-09T06:12:25;100539.34;;;14.05;100.00
46430;BME280;32131;53.454;-6.180;2022-09-09T06:14:52;100544.50;;;14.07;100.00
46430;BME280;32131;53.454;-6.180;2022-09-09T06:17:20;100537.56;;;14.12;100.00
46430;BME280;32131;53.454;-6.180;2022-09-09T06:19:48;100543.63;;;14.15;100.00
46430;BME280;32131;53.454;-6.180;2022-09-09T06:22:17;100550.56;;;14.18;100.00
46430;BME280;32131;53.454;-6.180;2022-09-09T06:24:45;100554.00;;;14.19;100.00
46430;BME280;32131;53.454;-6.180;2022-09-09T06:27:13;100559.19;;;14.15;100.00
46430;BME280;32131;53.454;-6.180;2022-09-09T06:29:42;100556.59;;;14.19;100.00
46430;BME280;32131;53.454;-6.180;2022-09-09T06:32:13;100564.41;;;14.22;100.00
46430;BME280;32131;53.454;-6.180;2022-09-09T06:34:55;100569.56;;;14.23;100.00
46430;BME280;32131;53.454;-6.180;2022-09-09T06:37:23;100567.81;;;14.24;100.00
46430;BME280;32131;53.454;-6.180;2022-09-09T06:39:50;100576.47;;;14.26;100.00
46430;BME280;32131;53.454;-6.180;2022-09-09T06:42:18;100581.69;;;14.24;100.00
46430;BME280;32131;53.454;-6.180;2022-09-09T06:44:48;100580.81;;;14.27;100.00
46430;BME280;32131;53.454;-6.180;2022-09-09T06:47:16;100576.50;;;14.29;100.00
46430;BME280;32131;53.454;-6.180;2022-09-09T06:49:44;100585.13;;;14.29;100.00
46430;BME280;32131;53.454;-6.180;2022-09-09T06:52:13;100592.03;;;14.32;100.00
46430;BME280;32131;53.454;-6.180;2022-09-09T06:54:41;100593.78;;;14.31;100.00
46430;BME280;32131;53.454;-6.180;2022-09-09T06:57:09;100595.50;;;14.34;100.00
46430;BME280;32131;53.454;-6.180;2022-09-09T06:59:58;100606.75;;;14.38;100.00
46430;BME280;32131;53.454;-6.180;2022-09-09T07:02:27;100607.63;;;14.43;100.00
46430;BME280;32131;53.454;-6.180;2022-09-09T07:04:55;100611.91;;;14.49;100.00
46430;BME280;32131;53.454;-6.180;2022-09-09T07:07:24;100614.53;;;14.52;100.00
46430;BME280;32131;53.454;-6.180;2022-09-09T07:09:52;100622.31;;;14.56;100.00
46430;BME280;32131;53.454;-6.180;2022-09-09T07:12:20;100619.69;;;14.58;100.00
46430;BME280;32131;53.454;-6.180;2022-09-09T07:14:48;100618.78;;;14.65;100.00
46430;BME280;32131;53.454;-6.180;2022-09-09T07:17:17;100617.09;;;14.70;100.00
46430;BME280;32131;53.454;-6.180;2022-09-09T07:19:45;100612.69;;;14.82;100.00
46430;BME280;32131;53.454;-6.180;2022-09-09T07:22:13;100628.25;;;14.99;100.00
46430;BME280;32131;53.454;-6.180;2022-09-09T07:24:42;100636.03;;;15.06;100.00
46430;BME280;32131;53.454;-6.180;2022-09-09T07:27:11;100635.13;;;15.07;100.00
46430;BME280;32131;53.454;-6.180;2022-09-09T07:29:39;100643.78;;;15.11;100.00
46430;BME280;32131;53.454;-6.180;2022-09-09T07:32:07;100643.81;;;15.03;100.00
46430;BME280;32131;53.454;-6.180;2022-09-09T07:34:36;100647.31;;;14.94;100.00
46430;BME280;32131;53.454;-6.180;2022-09-09T07:37:04;100644.78;;;14.85;100.00
46430;BME280;32131;53.454;-6.180;2022-09-09T07:39:32;100645.63;;;14.86;100.00
46430;BME280;32131;53.454;-6.180;2022-09-09T07:42:00;100653.41;;;14.93;100.00
46430;BME280;32131;53.454;-6.180;2022-09-09T07:44:28;100658.53;;;15.11;100.00
46430;BME280;32131;53.454;-6.180;2022-09-09T07:46:57;100661.00;;;15.38;100.00
46430;BME280;32131;53.454;-6.180;2022-09-09T07:49:25;100660.84;;;15.63;100.00
46430;BME280;32131;53.454;-6.180;2022-09-09T07:51:59;100659.06;;;15.68;100.00
46430;BME280;32131;53.454;-6.180;2022-09-09T07:54:28;100664.25;;;15.71;100.00
46430;BME280;32131;53.454;-6.180;2022-09-09T07:56:56;100665.91;;;15.80;100.00
46430;BME280;32131;53.454;-6.180;2022-09-09T07:59:25;100674.66;;;15.68;100.00
46430;BME280;32131;53.454;-6.180;2022-09-09T08:01:54;100680.75;;;15.70;100.00
46430;BME280;32131;53.454;-6.180;2022-09-09T08:04:22;100678.19;;;15.64;100.00
46430;BME280;32131;53.454;-6.180;2022-09-09T08:06:52;100681.59;;;15.69;100.00
46430;BME280;32131;53.454;-6.180;2022-09-09T08:09:21;100678.00;;;15.92;100.00
46430;BME280;32131;53.454;-6.180;2022-09-09T08:11:51;100682.16;;;16.13;100.00
46430;BME280;32131;53.454;-6.180;2022-09-09T08:14:19;100690.06;;;16.06;100.00
46430;BME280;32131;53.454;-6.180;2022-09-09T08:16:47;100696.94;;;16.13;100.00
46430;BME280;32131;53.454;-6.180;2022-09-09T08:19:15;100706.25;;;16.40;100.00
46430;BME280;32131;53.454;-6.180;2022-09-09T08:21:44;100698.09;;;16.74;100.00
46430;BME280;32131;53.454;-6.180;2022-09-09T08:24:12;100710.00;;;17.02;100.00
46430;BME280;32131;53.454;-6.180;2022-09-09T08:26:43;100706.13;;;17.32;100.00
46430;BME280;32131;53.454;-6.180;2022-09-09T08:29:11;100717.31;;;17.42;100.00
46430;BME280;32131;53.454;-6.180;2022-09-09T08:31:41;100725.91;;;17.52;100.00
46430;BME280;32131;53.454;-6.180;2022-09-09T08:34:09;100724.09;;;17.58;100.00
46430;BME280;32131;53.454;-6.180;2022-09-09T08:36:38;100725.78;;;17.61;100.00
46430;BME280;32131;53.454;-6.180;2022-09-09T08:39:07;100734.56;;;17.55;100.00
46430;BME280;32131;53.454;-6.180;2022-09-09T08:44:31;100735.47;;;17.53;100.00
46430;BME280;32131;53.454;-6.180;2022-09-09T08:47:06;100740.66;;;17.54;100.00
46430;BME280;32131;53.454;-6.180;2022-09-09T08:49:39;100741.50;;;17.55;100.00
46430;BME280;32131;53.454;-6.180;2022-09-09T08:52:22;100749.44;;;17.47;100.00
46430;BME280;32131;53.454;-6.180;2022-09-09T08:54:51;100752.84;;;17.54;100.00
46430;BME280;32131;53.454;-6.180;2022-09-09T08:57:30;100755.44;;;17.55;100.00
46430;BME280;32131;53.454;-6.180;2022-09-09T09:00:01;100752.84;;;17.52;100.00
46430;BME280;32131;53.454;-6.180;2022-09-09T09:02:36;100760.72;;;17.51;100.00
46430;BME280;32131;53.454;-6.180;2022-09-09T09:05:19;100766.72;;;17.57;100.00
46430;BME280;32131;53.454;-6.180;2022-09-09T09:07:58;100772.78;;;17.61;100.00
46430;BME280;32131;53.454;-6.180;2022-09-09T09:10:33;100768.31;;;17.68;100.00
46430;BME280;32131;53.454;-6.180;2022-09-09T09:13:12;100779.59;;;17.70;100.00
46430;BME280;32131;53.454;-6.180;2022-09-09T09:15:52;100789.78;;;17.88;100.00
46430;BME280;32131;53.454;-6.180;2022-09-09T09:18:23;100786.75;;;18.19;100.00
46430;BME280;32131;53.454;-6.180;2022-09-09T09:20:56;100792.53;;;18.40;100.00
46430;BME280;32131;53.454;-6.180;2022-09-09T09:23:32;100796.53;;;18.63;100.00
46430;BME280;32131;53.454;-6.180;2022-09-09T09:26:32;100796.31;;;18.75;97.04
46430;BME280;32131;53.454;-6.180;2022-09-09T09:29:28;100797.72;;;18.95;96.34
46430;BME280;32131;53.454;-6.180;2022-09-09T09:32:01;100806.19;;;19.09;96.20
46430;BME280;32131;53.454;-6.180;2022-09-09T09:34:30;100801.44;;;19.30;95.58
46430;BME280;32131;53.454;-6.180;2022-09-09T09:37:07;100800.00;;;19.57;94.93
46430;BME280;32131;53.454;-6.180;2022-09-09T09:39:42;100802.13;;;19.80;94.13
46430;BME280;32131;53.454;-6.180;2022-09-09T09:42:30;100811.53;;;19.91;93.63
46430;BME280;32131;53.454;-6.180;2022-09-09T09:45:07;100818.81;;;19.76;92.60
46430;BME280;32131;53.454;-6.180;2022-09-09T09:47:38;100821.97;;;19.50;93.24
46430;BME280;32131;53.454;-6.180;2022-09-09T09:50:16;100823.22;;;19.32;89.54
46430;BME280;32131;53.454;-6.180;2022-09-09T09:52:52;100828.28;;;19.40;89.80
46430;BME280;32131;53.454;-6.180;2022-09-09T09:55:22;100832.78;;;19.33;90.59
46430;BME280;32131;53.454;-6.180;2022-09-09T09:57:50;100843.97;;;19.40;91.73
46430;BME280;32131;53.454;-6.180;2022-09-09T10:00:20;100840.28;;;19.50;91.13
46430;BME280;32131;53.454;-6.180;2022-09-09T10:02:52;100841.25;;;19.46;89.51
46430;BME280;32131;53.454;-6.180;2022-09-09T10:05:23;100850.97;;;19.39;88.69
46430;BME280;32131;53.454;-6.180;2022-09-09T10:08:03;100851.13;;;19.33;89.47
46430;BME280;32131;53.454;-6.180;2022-09-09T10:10:36;100849.38;;;19.32;90.19
46430;BME280;32131;53.454;-6.180;2022-09-09T10:13:15;100856.63;;;19.17;90.52
46430;BME280;32131;53.454;-6.180;2022-09-09T10:15:48;100853.22;;;19.12;90.32
46430;BME280;32131;53.454;-6.180;2022-09-09T10:18:31;100852.47;;;19.07;90.28
46430;BME280;32131;53.454;-6.180;2022-09-09T10:21:06;100857.94;;;18.93;89.68
46430;BME280;32131;53.454;-6.180;2022-09-09T10:23:47;100854.50;;;18.88;90.82
46430;BME280;32131;53.454;-6.180;2022-09-09T10:26:23;100859.72;;;18.90;89.79
46430;BME280;32131;53.454;-6.180;2022-09-09T10:28:58;100860.44;;;19.01;90.48
46430;BME280;32131;53.454;-6.180;2022-09-09T10:31:33;100859.59;;;18.97;91.02
46430;BME280;32131;53.454;-6.180;2022-09-09T10:34:18;100865.78;;;18.93;91.05
46430;BME280;32131;53.454;-6.180;2022-09-09T10:36:56;100867.19;;;19.11;90.43
46430;BME280;32131;53.454;-6.180;2022-09-09T10:39:31;100865.44;;;19.59;88.53
46430;BME280;32131;53.454;-6.180;2022-09-09T10:42:08;100868.91;;;20.42;86.08
46430;BME280;32131;53.454;-6.180;2022-09-09T10:44:45;100874.72;;;20.93;83.95
46430;BME280;32131;53.454;-6.180;2022-09-09T10:47:20;100876.84;;;20.77;83.58
46430;BME280;32131;53.454;-6.180;2022-09-09T10:50:09;100879.34;;;20.44;84.77
46430;BME280;32131;53.454;-6.180;2022-09-09T10:52:41;100884.03;;;20.31;85.50
46430;BME280;32131;53.454;-6.180;2022-09-09T10:55:13;100881.69;;;20.19;83.81
46430;BME280;32131;53.454;-6.180;2022-09-09T10:57:56;100883.22;;;19.87;84.83
46430;BME280;32131;53.454;-6.180;2022-09-09T11:00:31;100897.78;;;19.56;86.44
46430;BME280;32131;53.454;-6.180;2022-09-09T11:03:21;100897.84;;;19.53;87.27
46430;BME280;32131;53.454;-6.180;2022-09-09T11:19:00;100896.78;;;21.19;81.73
46430;BME280;32131;53.454;-6.180;2022-09-09T11:22:21;100897.53;;;20.52;83.89
46430;BME280;32131;53.454;-6.180;2022-09-09T11:24:58;100901.44;;;20.71;82.85
46430;BME280;32131;53.454;-6.180;2022-09-09T11:28:36;100903.19;;;21.09;82.12
46430;BME280;32131;53.454;-6.180;2022-09-09T11:30:47;100903.19;;;21.75;74.90
46430;BME280;32131;53.454;-6.180;2022-09-09T11:33:26;100903.75;;;21.86;76.16
46430;BME280;32131;53.454;-6.180;2022-09-09T11:36:11;100913.38;;;21.86;75.96
46430;BME280;32131;53.454;-6.180;2022-09-09T11:38:55;100909.69;;;22.21;76.16
46430;BME280;32131;53.454;-6.180;2022-09-09T11:49:21;100914.69;;;22.01;76.59
46430;BME280;32131;53.454;-6.180;2022-09-09T11:57:59;100926.94;;;21.37;76.68
46430;BME280;32131;53.454;-6.180;2022-09-09T12:10:52;100949.22;;;21.88;73.57
46430;BME280;32131;53.454;-6.180;2022-09-09T12:13:59;100945.69;;;21.89;73.94
46430;BME280;32131;53.454;-6.180;2022-09-09T12:16:48;100945.41;;;21.98;73.53
46430;BME280;32131;53.454;-6.180;2022-09-09T12:19:18;100944.59;;;21.96;72.37
46430;BME280;32131;53.454;-6.180;2022-09-09T12:21:54;100944.72;;;21.93;70.86
46430;BME280;32131;53.454;-6.180;2022-09-09T12:24:43;100942.78;;;21.98;70.38
46430;BME280;32131;53.454;-6.180;2022-09-09T12:27:17;100940.47;;;21.88;69.26
46430;BME280;32131;53.454;-6.180;2022-09-09T12:29:49;100947.53;;;21.86;69.87
46430;BME280;32131;53.454;-6.180;2022-09-09T12:32:22;100951.94;;;21.85;70.62
46430;BME280;32131;53.454;-6.180;2022-09-09T12:34:52;100950.41;;;21.78;71.67
46430;BME280;32131;53.454;-6.180;2022-09-09T12:37:28;100954.34;;;21.61;72.10
46430;BME280;32131;53.454;-6.180;2022-09-09T12:40:06;100948.66;;;21.44;72.19
46430;BME280;32131;53.454;-6.180;2022-09-09T12:42:39;100955.06;;;21.33;72.25
46430;BME280;32131;53.454;-6.180;2022-09-09T12:45:16;100954.16;;;21.34;71.70
46430;BME280;32131;53.454;-6.180;2022-09-09T12:47:46;100967.94;;;21.43;71.53
46430;BME280;32131;53.454;-6.180;2022-09-09T12:50:30;100965.47;;;22.03;71.43
46430;BME280;32131;53.454;-6.180;2022-09-09T12:53:03;100959.66;;;22.80;68.60
46430;BME280;32131;53.454;-6.180;2022-09-09T12:55:36;100963.00;;;23.12;67.99
46430;BME280;32131;53.454;-6.180;2022-09-09T12:58:06;100966.94;;;23.27;67.19
46430;BME280;32131;53.454;-6.180;2022-09-09T13:00:35;100968.22;;;23.40;67.00
46430;BME280;32131;53.454;-6.180;2022-09-09T13:03:14;100970.69;;;23.19;67.28
46430;BME280;32131;53.454;-6.180;2022-09-09T13:05:43;100967.63;;;22.78;67.89
46430;BME280;32131;53.454;-6.180;2022-09-09T13:08:23;100980.78;;;22.50;69.04
46430;BME280;32131;53.454;-6.180;2022-09-09T13:14:19;100990.03;;;22.02;70.50
46430;BME280;32131;53.454;-6.180;2022-09-09T13:20:33;101005.88;;;21.98;71.52
46430;BME280;32131;53.454;-6.180;2022-09-09T13:23:03;101001.53;;;21.97;71.79
46430;BME280;32131;53.454;-6.180;2022-09-09T13:25:32;101006.44;;;22.10;71.57
46430;BME280;32131;53.454;-6.180;2022-09-09T13:30:26;101000.69;;;22.27;71.73
46430;BME280;32131;53.454;-6.180;2022-09-09T13:31:20;100996.44;;;22.23;72.24
46430;BME280;32131;53.454;-6.180;2022-09-09T13:34:07;101005.31;;;22.19;71.83
46430;BME280;32131;53.454;-6.180;2022-09-09T13:36:40;101005.47;;;21.81;71.86
46430;BME280;32131;53.454;-6.180;2022-09-09T13:39:13;101010.47;;;21.57;72.48
46430;BME280;32131;53.454;-6.180;2022-09-09T13:41:58;101009.09;;;21.42;72.49
46430;BME280;32131;53.454;-6.180;2022-09-09T13:44:29;101009.59;;;21.58;72.12
46430;BME280;32131;53.454;-6.180;2022-09-09T13:48:19;101014.50;;;21.72;72.13